Time;durP1;ratioP1;P1;durP2;ratioP2;P2;SDS_P1;SDS_P2;PMS_P1;PMS_P2;Temp;Humidity;BMP_temperature;BMP_pressure;BME280_temperature;BME280_humidity;BME280_pressure;Samples;Min_cycle;Max_cycle;Signal;HPM_P1;HPM_P2
2021/04/26 00:00:16;;;;;;;0.20;0.20;;;;;;;3.55;52.04;101274.34;5070864;28;20558;-75
2021/04/26 00:02:42;;;;;;;0.10;0.10;;;;;;;3.49;52.67;101270.75;5070696;28;20170;-75
2021/04/26 00:05:09;;;;;;;1.03;0.40;;;;;;;3.68;53.67;101274.03;5070759;28;20239;-75
2021/04/26 00:07:34;;;;;;;0.40;0.30;;;;;;;3.70;53.30;101271.09;5070694;28;20194;-75
2021/04/26 00:09:59;;;;;;;0.30;0.30;;;;;;;3.57;52.75;101266.81;5070997;28;20630;-74
2021/04/26 00:12:25;;;;;;;0.50;0.20;;;;;;;3.46;53.06;101273.09;5070587;28;20605;-77
2021/04/26 00:14:51;;;;;;;0.40;0.40;;;;;;;3.26;53.79;101266.28;5070714;28;20170;-76
2021/04/26 00:17:17;;;;;;;0.10;0.10;;;;;;;3.07;55.01;101264.03;5069120;28;20179;-76
2021/04/26 00:19:42;;;;;;;0.30;0.20;;;;;;;2.99;53.96;101260.66;5070432;28;20206;-77
2021/04/26 00:22:08;;;;;;;0.20;0.20;;;;;;;3.04;54.20;101264.50;5070464;28;20174;-75
2021/04/26 00:24:33;;;;;;;0.20;0.20;;;;;;;2.97;54.04;101261.97;5070251;28;20171;-76
2021/04/26 00:26:59;;;;;;;0.33;0.20;;;;;;;3.01;53.00;101271.22;5070464;28;20171;-76
2021/04/26 00:29:25;;;;;;;0.07;0.07;;;;;;;2.98;53.92;101269.81;5070441;28;20197;-77
2021/04/26 00:31:50;;;;;;;0.10;0.10;;;;;;;3.02;53.35;101263.94;5070413;28;20220;-74
2021/04/26 00:34:15;;;;;;;1.37;0.50;;;;;;;2.90;53.47;101261.31;5069028;28;20415;-74
2021/04/26 00:36:41;;;;;;;0.13;0.13;;;;;;;2.77;55.42;101259.69;5070457;28;20198;-78
2021/04/26 00:39:06;;;;;;;1.30;0.63;;;;;;;2.81;56.07;101260.84;5070219;28;20669;-78
2021/04/26 00:41:31;;;;;;;0.10;0.10;;;;;;;2.87;57.19;101261.75;5070271;28;20167;-77
2021/04/26 00:43:57;;;;;;;0.20;0.20;;;;;;;2.74;57.56;101252.06;5070297;28;20175;-77
2021/04/26 00:46:22;;;;;;;0.30;0.30;;;;;;;2.55;58.85;101264.91;5070318;28;20206;-74
2021/04/26 00:48:48;;;;;;;0.33;0.33;;;;;;;2.35;59.74;101265.28;5073442;28;20225;-75
2021/04/26 00:51:13;;;;;;;0.20;0.20;;;;;;;2.22;60.73;101257.44;5073969;28;20235;-76
2021/04/26 00:53:39;;;;;;;0.17;0.17;;;;;;;2.05;61.14;101259.22;5073770;28;20182;-77
2021/04/26 00:56:05;;;;;;;0.10;0.10;;;;;;;1.86;61.77;101258.50;5073898;28;20802;-73
2021/04/26 00:58:31;;;;;;;0.30;0.30;;;;;;;1.68;63.02;101254.03;5073877;28;20174;-74
2021/04/26 01:00:56;;;;;;;0.13;0.13;;;;;;;1.38;64.15;101258.66;5073662;28;20539;-74
2021/04/26 01:03:21;;;;;;;1.13;0.40;;;;;;;1.12;66.06;101249.09;5073646;28;20217;-73
2021/04/26 01:05:47;;;;;;;0.87;0.37;;;;;;;1.07;66.60;101248.97;5073697;28;20706;-74
2021/04/26 01:08:12;;;;;;;0.20;0.10;;;;;;;0.94;65.94;101255.38;5073626;28;20232;-76
2021/04/26 01:10:38;;;;;;;0.10;0.10;;;;;;;0.96;66.58;101250.56;5073610;28;20175;-73
2021/04/26 01:13:15;;;;;;;0.60;0.43;;;;;;;0.95;65.39;101256.19;5073532;28;20185;-75
2021/04/26 01:16:17;;;;;;;0.40;0.23;;;;;;;1.12;65.76;101251.78;5073591;28;20273;-75
2021/04/26 01:19:11;;;;;;;0.07;0.07;;;;;;;1.14;65.50;101258.59;5073222;28;20216;-76
2021/04/26 01:22:20;;;;;;;0.10;0.10;;;;;;;1.04;65.85;101252.97;5073439;28;20186;-76
2021/04/26 01:24:51;;;;;;;0.27;0.20;;;;;;;1.01;66.46;101258.78;5073243;28;20170;-75
2021/04/26 01:27:40;;;;;;;0.20;0.20;;;;;;;1.00;67.02;101259.81;5073412;28;20759;-73
2021/04/26 01:30:12;;;;;;;0.10;0.10;;;;;;;0.95;66.08;101264.25;5073630;28;20171;-73
2021/04/26 01:32:54;;;;;;;1.30;0.80;;;;;;;0.76;66.55;101250.84;5073453;28;20163;-75
2021/04/26 01:35:22;;;;;;;0.40;0.30;;;;;;;0.58;66.46;101253.56;5072002;28;20598;-74
2021/04/26 01:37:50;;;;;;;1.33;0.50;;;;;;;0.66;67.14;101247.88;5071774;28;20179;-73
2021/04/26 01:40:18;;;;;;;0.27;0.20;;;;;;;0.79;66.77;101257.63;5073203;28;20467;-73
2021/04/26 01:42:48;;;;;;;0.50;0.50;;;;;;;0.70;66.01;101250.91;5073038;28;20197;-75
2021/04/26 01:45:16;;;;;;;2.57;1.87;;;;;;;0.33;66.99;101250.13;5071814;28;20542;-76
2021/04/26 01:47:44;;;;;;;2.00;0.50;;;;;;;0.04;66.95;101249.81;5072849;28;20190;-78
2021/04/26 01:50:11;;;;;;;0.00;0.00;;;;;;;-0.09;66.31;101249.94;5073003;28;20421;-77
2021/04/26 01:52:37;;;;;;;0.03;0.03;;;;;;;-0.13;66.13;101246.06;5072755;28;20405;-73
2021/04/26 01:55:06;;;;;;;0.40;0.23;;;;;;;-0.16;66.22;101246.47;5073250;28;20421;-76
2021/04/26 01:57:32;;;;;;;1.43;0.60;;;;;;;-0.10;66.28;101245.59;5072435;28;20419;-74
2021/04/26 02:00:01;;;;;;;0.33;0.33;;;;;;;-0.12;65.91;101248.50;5072392;28;20476;-74
2021/04/26 02:02:28;;;;;;;3.17;0.67;;;;;;;0.20;65.61;101245.72;5072576;28;20919;-75
2021/04/26 02:04:56;;;;;;;0.00;0.00;;;;;;;0.34;63.50;101247.22;5072798;28;20412;-73
2021/04/26 02:07:22;;;;;;;0.50;0.50;;;;;;;0.23;63.93;101250.63;5072622;28;20167;-74
2021/04/26 02:09:50;;;;;;;0.40;0.40;;;;;;;0.18;64.29;101240.56;5072606;28;20409;-75
2021/04/26 02:12:16;;;;;;;0.63;0.63;;;;;;;0.10;64.85;101235.47;5072631;28;20255;-74
2021/04/26 02:14:42;;;;;;;1.07;0.63;;;;;;;-0.08;64.85;101236.28;5072695;28;20424;-77
2021/04/26 02:17:08;;;;;;;0.30;0.23;;;;;;;-0.07;64.56;101239.78;5072481;28;20405;-74
2021/04/26 02:19:34;;;;;;;0.10;0.10;;;;;;;-0.17;65.60;101242.16;5072316;28;20468;-75
2021/04/26 02:21:59;;;;;;;0.10;0.10;;;;;;;-0.35;65.25;101238.38;5072267;28;20617;-73
2021/04/26 02:24:25;;;;;;;0.13;0.13;;;;;;;-0.49;64.48;101241.41;5072121;28;20528;-76
2021/04/26 02:26:50;;;;;;;0.10;0.10;;;;;;;-0.44;63.57;101237.00;5072578;28;20174;-73
2021/04/26 02:29:15;;;;;;;0.13;0.10;;;;;;;-0.29;64.52;101228.63;5071007;28;20182;-74
2021/04/26 02:31:44;;;;;;;5.20;0.67;;;;;;;-0.13;65.52;101227.25;5072106;28;20174;-74
2021/04/26 02:34:16;;;;;;;0.00;0.00;;;;;;;0.11;65.40;101233.59;5072219;28;20202;-75
2021/04/26 02:36:47;;;;;;;0.97;0.23;;;;;;;0.26;63.34;101224.13;5071929;28;20449;-76
2021/04/26 02:39:14;;;;;;;0.40;0.27;;;;;;;0.01;63.15;101219.91;5071999;28;20999;-76
2021/04/26 02:41:42;;;;;;;0.10;0.10;;;;;;;-0.22;64.35;101207.91;5071908;28;20402;-75
2021/04/26 02:44:29;;;;;;;0.10;0.10;;;;;;;-0.31;64.89;101210.03;5071820;28;20637;-71
2021/04/26 02:47:03;;;;;;;0.00;0.00;;;;;;;-0.21;64.67;101208.72;5072071;28;20405;-71
2021/04/26 02:49:29;;;;;;;0.00;0.00;;;;;;;-0.08;63.71;101206.75;5072551;28;20424;-73
2021/04/26 02:51:56;;;;;;;0.20;0.10;;;;;;;0.03;63.58;101209.75;5074295;28;20175;-73
2021/04/26 02:54:23;;;;;;;0.00;0.00;;;;;;;0.16;63.29;101209.59;5072692;28;20416;-76
2021/04/26 02:56:50;;;;;;;0.10;0.10;;;;;;;0.22;64.02;101203.31;5071700;28;20703;-72
2021/04/26 02:59:20;;;;;;;0.47;0.20;;;;;;;0.37;64.01;101202.94;5071571;28;20478;-75
2021/04/26 03:01:46;;;;;;;0.10;0.03;;;;;;;0.15;63.57;101208.78;5071481;28;20444;-72
2021/04/26 03:04:12;;;;;;;0.17;0.17;;;;;;;-0.07;64.89;101199.50;5071435;28;20224;-76
2021/04/26 03:06:38;;;;;;;0.83;0.70;;;;;;;-0.15;66.28;101205.16;5071481;28;20412;-76
2021/04/26 03:09:05;;;;;;;0.70;0.40;;;;;;;-0.15;67.30;101203.28;5071238;28;20443;-73
2021/04/26 03:11:31;;;;;;;1.17;0.63;;;;;;;-0.23;66.18;101192.84;5070770;28;20448;-74
2021/04/26 03:13:58;;;;;;;0.20;0.20;;;;;;;-0.06;66.26;101201.16;5071301;28;20464;-72
2021/04/26 03:16:26;;;;;;;0.20;0.20;;;;;;;0.14;65.55;101192.84;5071104;28;20178;-71
2021/04/26 03:18:52;;;;;;;0.10;0.10;;;;;;;0.17;65.46;101195.94;5071292;28;20448;-73
2021/04/26 03:21:17;;;;;;;0.10;0.10;;;;;;;0.21;65.23;101185.56;5071105;28;20478;-71
2021/04/26 03:23:43;;;;;;;0.80;0.80;;;;;;;0.27;65.33;101179.28;5071024;28;20593;-72
2021/04/26 03:26:09;;;;;;;0.30;0.23;;;;;;;0.26;65.01;101183.00;5069659;28;20175;-74
2021/04/26 03:28:39;;;;;;;0.10;0.10;;;;;;;0.23;65.20;101176.22;5071003;28;20198;-75
2021/04/26 03:31:05;;;;;;;0.83;0.23;;;;;;;0.10;65.17;101176.38;5071039;28;20649;-71
2021/04/26 03:33:34;;;;;;;0.30;0.10;;;;;;;-0.04;66.42;101178.38;5071024;28;20257;-73
2021/04/26 03:36:01;;;;;;;0.53;0.40;;;;;;;-0.08;66.26;101169.13;5070917;28;20440;-70
2021/04/26 03:38:28;;;;;;;0.40;0.20;;;;;;;-0.07;65.71;101186.91;5070880;28;20417;-71
2021/04/26 03:40:54;;;;;;;0.07;0.07;;;;;;;-0.03;65.70;101171.97;5070711;28;20431;-73
2021/04/26 03:43:21;;;;;;;0.50;0.40;;;;;;;-0.01;66.10;101172.56;5070856;28;20202;-72
2021/04/26 03:45:49;;;;;;;0.17;0.17;;;;;;;-0.13;66.08;101174.38;5070868;28;20478;-75
2021/04/26 03:48:14;;;;;;;0.50;0.30;;;;;;;-0.34;66.82;101169.41;5070706;28;20450;-73
2021/04/26 03:50:39;;;;;;;7.50;0.13;;;;;;;-0.38;67.57;101166.34;5070754;28;20939;-75
2021/04/26 03:53:05;;;;;;;0.00;0.00;;;;;;;-0.45;67.91;101168.25;5070783;28;20178;-71
2021/04/26 03:55:31;;;;;;;0.00;0.00;;;;;;;-0.61;67.73;101166.13;5070694;28;20634;-73
2021/04/26 03:57:56;;;;;;;0.37;0.37;;;;;;;-0.64;67.78;101169.28;5070713;28;20625;-77
2021/04/26 04:00:22;;;;;;;0.10;0.10;;;;;;;-0.61;66.97;101169.66;5071242;28;20289;-72
2021/04/26 04:02:48;;;;;;;0.03;0.03;;;;;;;-0.56;66.90;101169.00;5070561;28;20167;-75
2021/04/26 04:05:14;;;;;;;0.00;0.00;;;;;;;-0.72;67.39;101175.75;5070813;28;20424;-71
2021/04/26 04:07:40;;;;;;;0.03;0.03;;;;;;;-0.78;67.50;101168.56;5070756;28;20547;-73
2021/04/26 04:10:08;;;;;;;0.00;0.00;;;;;;;-0.79;67.55;101163.41;5070489;28;20436;-73
2021/04/26 04:12:34;;;;;;;0.50;0.50;;;;;;;-0.79;67.97;101156.19;5070568;28;20175;-72
2021/04/26 04:15:00;;;;;;;0.50;0.10;;;;;;;-0.81;68.07;101163.63;5070592;28;20922;-71
2021/04/26 04:17:26;;;;;;;0.30;0.30;;;;;;;-0.70;67.79;101157.56;5070529;28;20231;-71
2021/04/26 04:19:51;;;;;;;0.10;0.10;;;;;;;-0.60;67.38;101151.69;5070385;28;20206;-73
2021/04/26 04:22:17;;;;;;;2.43;0.30;;;;;;;-0.55;66.86;101149.19;5073105;28;20424;-72
2021/04/26 04:24:43;;;;;;;0.00;0.00;;;;;;;-0.53;66.31;101146.28;5074402;28;20182;-70
2021/04/26 04:27:08;;;;;;;0.20;0.13;;;;;;;-0.42;66.33;101150.91;5074545;28;20174;-71
2021/04/26 04:29:33;;;;;;;0.47;0.40;;;;;;;-0.27;65.14;101148.69;5074436;28;20175;-72
2021/04/26 04:31:59;;;;;;;0.03;0.03;;;;;;;-0.18;65.29;101146.53;5074372;28;20535;-72
2021/04/26 04:34:24;;;;;;;0.37;0.23;;;;;;;-0.22;65.67;101146.16;5074447;28;20528;-71
2021/04/26 04:36:51;;;;;;;1.60;1.03;;;;;;;-0.17;65.39;101148.97;5074285;28;20178;-71
2021/04/26 04:39:16;;;;;;;1.50;0.83;;;;;;;-0.11;65.69;101145.44;5074289;28;20216;-72
2021/04/26 04:41:41;;;;;;;0.77;0.40;;;;;;;0.02;66.01;101141.78;5074250;28;20420;-70
2021/04/26 04:44:07;;;;;;;0.03;0.03;;;;;;;0.15;65.51;101141.63;5074083;28;20626;-72
2021/04/26 04:46:32;;;;;;;0.10;0.10;;;;;;;0.28;65.47;101143.28;5074209;28;20174;-70
2021/04/26 04:48:57;;;;;;;0.13;0.13;;;;;;;0.38;65.26;101140.06;5073930;28;20183;-72
2021/04/26 04:51:23;;;;;;;0.10;0.10;;;;;;;0.45;64.76;101144.34;5074027;28;20186;-72
2021/04/26 04:53:49;;;;;;;0.20;0.20;;;;;;;0.52;64.18;101142.38;5073883;28;20228;-72
2021/04/26 04:56:14;;;;;;;0.23;0.23;;;;;;;0.40;64.56;101151.41;5073927;28;20174;-73
2021/04/26 04:58:40;;;;;;;0.20;0.17;;;;;;;0.18;64.59;101157.28;5073826;28;20303;-71
2021/04/26 05:01:05;;;;;;;0.33;0.33;;;;;;;-0.09;66.25;101156.75;5074152;28;20525;-71
2021/04/26 05:03:31;;;;;;;6.03;1.17;;;;;;;0.04;67.01;101160.34;5073706;28;20420;-71
2021/04/26 05:05:56;;;;;;;0.37;0.30;;;;;;;0.10;66.44;101160.25;5073604;28;20170;-71
2021/04/26 05:08:21;;;;;;;0.40;0.40;;;;;;;0.04;66.82;101161.16;5074094;28;20727;-72
2021/04/26 05:10:47;;;;;;;0.53;0.50;;;;;;;0.16;67.66;101170.13;5073796;28;20546;-72
2021/04/26 05:13:13;;;;;;;0.20;0.20;;;;;;;0.34;67.69;101158.53;5072276;28;20281;-71
2021/04/26 05:15:39;;;;;;;0.60;0.40;;;;;;;0.32;68.67;101163.31;5073639;28;20472;-72
2021/04/26 05:18:06;;;;;;;0.70;0.40;;;;;;;0.30;68.63;101162.72;5073591;28;20179;-71
2021/04/26 05:20:31;;;;;;;0.40;0.30;;;;;;;0.44;68.52;101161.50;5073125;28;20460;-70
2021/04/26 05:22:56;;;;;;;0.60;0.43;;;;;;;0.46;69.10;101148.66;5073632;28;20424;-74
2021/04/26 05:25:22;;;;;;;0.70;0.47;;;;;;;0.61;68.90;101155.50;5073280;28;20242;-71
2021/04/26 05:27:47;;;;;;;0.80;0.23;;;;;;;0.74;68.33;101145.38;5072054;28;20170;-70
2021/04/26 05:30:13;;;;;;;0.30;0.30;;;;;;;0.87;68.27;101149.75;5073232;28;20668;-71
2021/04/26 05:32:39;;;;;;;4.27;0.90;;;;;;;0.93;67.53;101148.00;5072239;28;20634;-73
2021/04/26 05:35:05;;;;;;;14.50;0.77;;;;;;;0.95;67.63;101152.09;5073174;28;20194;-70
2021/04/26 05:37:30;;;;;;;0.70;0.60;;;;;;;1.12;67.37;101154.94;5071700;28;20179;-73
2021/04/26 05:39:56;;;;;;;0.90;0.87;;;;;;;1.11;67.39;101156.81;5073130;28;20632;-72
2021/04/26 05:42:21;;;;;;;6.43;0.93;;;;;;;1.31;67.10;101151.13;5072994;28;20634;-69
2021/04/26 05:44:46;;;;;;;0.73;0.50;;;;;;;1.43;66.99;101151.09;5073058;28;20182;-70
2021/04/26 05:47:12;;;;;;;0.93;0.60;;;;;;;1.48;66.50;101141.28;5072549;28;20629;-75
2021/04/26 05:49:37;;;;;;;0.30;0.30;;;;;;;1.55;67.01;101140.34;5072663;28;20203;-73
2021/04/26 05:52:03;;;;;;;1.10;1.00;;;;;;;1.73;66.95;101141.03;5072870;28;20175;-71
2021/04/26 05:54:29;;;;;;;0.67;0.60;;;;;;;1.93;66.65;101137.16;5072842;28;20211;-71
2021/04/26 05:56:54;;;;;;;4.10;0.80;;;;;;;2.03;66.28;101134.69;5072954;28;20171;-70
2021/04/26 05:59:20;;;;;;;0.90;0.70;;;;;;;2.12;65.23;101137.81;5072754;28;20202;-76
2021/04/26 06:01:45;;;;;;;6.27;0.97;;;;;;;2.23;64.01;101140.47;5072675;28;20182;-71
2021/04/26 06:04:11;;;;;;;0.70;0.63;;;;;;;2.34;63.61;101141.50;5072682;28;20174;-74
2021/04/26 06:06:36;;;;;;;2.03;0.53;;;;;;;2.52;62.92;101140.50;5072739;28;20182;-74
2021/04/26 06:09:01;;;;;;;0.40;0.40;;;;;;;2.75;62.64;101144.97;5072582;28;20551;-73
2021/04/26 06:11:27;;;;;;;1.80;1.30;;;;;;;2.75;61.99;101145.81;5072506;28;20656;-70
2021/04/26 06:13:52;;;;;;;1.20;1.03;;;;;;;2.76;62.87;101144.75;5072465;28;20185;-72
2021/04/26 06:16:18;;;;;;;1.13;1.10;;;;;;;2.72;63.43;101142.75;5072255;28;20178;-72
2021/04/26 06:18:43;;;;;;;1.23;0.50;;;;;;;2.81;63.91;101139.44;5072346;28;20617;-71
2021/04/26 06:21:09;;;;;;;0.97;0.80;;;;;;;2.87;63.33;101146.53;5071324;28;20179;-71
2021/04/26 06:23:34;;;;;;;1.30;0.70;;;;;;;2.99;63.09;101139.19;5072238;28;20174;-71
2021/04/26 06:26:00;;;;;;;0.40;0.40;;;;;;;3.12;62.62;101135.38;5072256;28;20229;-72
2021/04/26 06:28:25;;;;;;;1.80;0.93;;;;;;;3.23;62.91;101136.34;5072197;28;20167;-72
2021/04/26 06:30:51;;;;;;;1.07;0.57;;;;;;;3.28;61.96;101136.44;5071184;28;20263;-72
2021/04/26 06:33:16;;;;;;;3.43;0.83;;;;;;;3.50;61.82;101137.31;5071572;28;20205;-71
2021/04/26 06:35:47;;;;;;;0.40;0.40;;;;;;;3.62;60.89;101131.84;5071857;28;20171;-71
2021/04/26 06:38:12;;;;;;;1.43;0.73;;;;;;;3.63;60.88;101135.34;5072397;28;20166;-71
2021/04/26 06:40:40;;;;;;;0.67;0.47;;;;;;;3.74;60.12;101129.00;5071894;28;20202;-72
2021/04/26 06:43:05;;;;;;;0.73;0.73;;;;;;;3.71;57.96;101124.09;5071893;28;20748;-74
2021/04/26 06:45:31;;;;;;;0.50;0.50;;;;;;;3.86;57.42;101119.72;5071795;28;20262;-74
2021/04/26 06:47:56;;;;;;;0.60;0.50;;;;;;;3.89;57.09;101121.91;5070850;28;20323;-73
2021/04/26 06:50:23;;;;;;;0.70;0.67;;;;;;;3.95;57.35;101122.00;5071812;28;20292;-73
2021/04/26 06:52:50;;;;;;;0.40;0.40;;;;;;;4.13;57.63;101122.50;5071576;28;20175;-73
2021/04/26 06:55:16;;;;;;;0.77;0.60;;;;;;;4.22;57.93;101122.88;5071804;28;20292;-73
2021/04/26 06:57:42;;;;;;;0.43;0.40;;;;;;;4.51;58.10;101115.38;5071540;28;20531;-76
2021/04/26 07:00:09;;;;;;;0.60;0.60;;;;;;;4.63;57.81;101126.88;5071645;28;20190;-72
2021/04/26 07:02:35;;;;;;;0.40;0.40;;;;;;;4.56;57.49;101123.53;5070403;28;20184;-74
2021/04/26 07:05:00;;;;;;;0.70;0.30;;;;;;;4.65;56.47;101124.72;5071438;28;20162;-76
2021/04/26 07:07:26;;;;;;;0.60;0.57;;;;;;;4.69;56.71;101127.72;5071403;28;20645;-71
2021/04/26 07:09:52;;;;;;;0.20;0.20;;;;;;;4.75;53.61;101124.81;5071260;28;20174;-72
2021/04/26 07:12:18;;;;;;;0.67;0.50;;;;;;;4.65;53.59;101124.72;5071116;28;20182;-71
2021/04/26 07:14:44;;;;;;;0.50;0.37;;;;;;;4.93;54.72;101122.81;5071279;28;20257;-71
2021/04/26 07:17:09;;;;;;;0.60;0.60;;;;;;;5.22;53.27;101112.50;5071282;28;20250;-73
2021/04/26 07:19:34;;;;;;;0.50;0.40;;;;;;;5.29;52.84;101121.22;5071112;28;20292;-72
2021/04/26 07:21:59;;;;;;;0.33;0.33;;;;;;;5.31;51.76;101119.88;5070966;28;20167;-73
2021/04/26 07:24:25;;;;;;;0.37;0.27;;;;;;;5.31;50.02;101117.16;5069666;28;20177;-71
2021/04/26 07:26:50;;;;;;;0.40;0.40;;;;;;;5.41;51.21;101118.31;5071230;28;20273;-70
2021/04/26 07:29:15;;;;;;;0.37;0.37;;;;;;;5.48;50.57;101111.59;5071000;28;20632;-71
2021/04/26 07:31:41;;;;;;;0.40;0.33;;;;;;;5.64;51.63;101129.59;5071067;28;20620;-71
2021/04/26 07:34:06;;;;;;;0.43;0.43;;;;;;;5.42;49.85;101115.34;5071019;28;20269;-72
2021/04/26 07:36:31;;;;;;;0.10;0.10;;;;;;;5.63;51.28;101116.28;5070940;28;20178;-71
2021/04/26 07:38:57;;;;;;;0.30;0.30;;;;;;;5.79;50.73;101112.63;5070686;28;20297;-73
2021/04/26 07:41:22;;;;;;;0.40;0.40;;;;;;;5.84;50.02;101115.34;5070845;28;20171;-71
2021/04/26 07:43:48;;;;;;;0.30;0.30;;;;;;;5.94;49.11;101118.16;5070820;28;20183;-72
2021/04/26 07:46:14;;;;;;;1.60;0.23;;;;;;;6.10;49.99;101110.06;5071214;28;20188;-73
2021/04/26 07:48:39;;;;;;;0.37;0.37;;;;;;;6.35;48.42;101112.84;5070673;28;20578;-72
2021/04/26 07:51:06;;;;;;;0.30;0.30;;;;;;;6.57;47.41;101116.19;5070729;28;20653;-72
2021/04/26 07:53:32;;;;;;;0.93;0.30;;;;;;;6.36;47.43;101114.50;5070640;28;20209;-71
2021/04/26 07:55:58;;;;;;;0.50;0.50;;;;;;;6.51;46.55;101116.47;5070415;28;20171;-72
2021/04/26 07:58:23;;;;;;;0.40;0.40;;;;;;;6.55;47.81;101104.78;5068970;28;20190;-72
2021/04/26 08:00:49;;;;;;;0.43;0.43;;;;;;;6.71;47.25;101110.25;5069896;28;20242;-72
2021/04/26 08:03:17;;;;;;;0.10;0.10;;;;;;;6.78;46.97;101110.78;5070537;28;20204;-72
2021/04/26 08:05:43;;;;;;;0.20;0.20;;;;;;;6.88;47.65;101110.00;5070744;28;20170;-72
2021/04/26 08:08:09;;;;;;;0.40;0.33;;;;;;;6.90;47.69;101111.34;5071042;28;20174;-72
2021/04/26 08:10:34;;;;;;;0.30;0.20;;;;;;;7.07;46.16;101109.19;5069531;28;20178;-78
2021/04/26 08:13:00;;;;;;;0.80;0.30;;;;;;;7.05;45.90;101110.53;5070709;28;20645;-72
2021/04/26 08:15:25;;;;;;;0.20;0.20;;;;;;;7.15;46.08;101099.69;5070707;28;20189;-71
2021/04/26 08:17:50;;;;;;;0.30;0.20;;;;;;;7.18;45.52;101098.31;5070640;28;20178;-71
2021/04/26 08:20:16;;;;;;;1.50;0.33;;;;;;;7.33;44.53;101098.31;5070567;28;20210;-72
2021/04/26 08:22:41;;;;;;;0.30;0.30;;;;;;;7.47;44.22;101100.19;5070470;28;20170;-71
2021/04/26 08:25:07;;;;;;;0.20;0.10;;;;;;;7.52;42.90;101096.63;5070572;28;20183;-73
2021/04/26 08:27:33;;;;;;;0.30;0.30;;;;;;;7.58;42.35;101092.03;5070392;28;20174;-72
2021/04/26 08:29:59;;;;;;;0.10;0.10;;;;;;;7.44;41.91;101091.78;5069890;28;20185;-73
2021/04/26 08:32:24;;;;;;;0.53;0.20;;;;;;;7.46;41.64;101095.84;5069618;28;20167;-73
2021/04/26 08:34:49;;;;;;;0.40;0.40;;;;;;;7.49;41.41;101082.78;5069764;28;20178;-76
2021/04/26 08:37:15;;;;;;;0.30;0.30;;;;;;;7.71;39.56;101080.56;5070022;28;20167;-77
2021/04/26 08:39:40;;;;;;;0.90;0.60;;;;;;;7.68;39.30;101083.84;5069957;28;20279;-73
2021/04/26 08:42:05;;;;;;;0.50;0.33;;;;;;;7.83;40.31;101083.00;5070162;28;20534;-79
2021/04/26 08:44:31;;;;;;;0.17;0.17;;;;;;;7.92;40.92;101087.56;5066078;28;20182;-76
2021/04/26 08:46:57;;;;;;;0.30;0.30;;;;;;;8.02;40.79;101092.97;5070539;28;20219;-73
2021/04/26 08:49:23;;;;;;;0.20;0.20;;;;;;;8.29;40.36;101087.13;5070409;28;20379;-71
2021/04/26 08:51:49;;;;;;;0.30;0.20;;;;;;;8.15;38.27;101086.13;5069852;28;20171;-73
2021/04/26 08:54:15;;;;;;;0.20;0.20;;;;;;;8.13;38.59;101082.88;5069712;28;20171;-75
2021/04/26 08:56:41;;;;;;;0.40;0.30;;;;;;;8.08;39.77;101093.75;5069777;28;20344;-74
2021/04/26 08:59:07;;;;;;;0.20;0.10;;;;;;;8.14;39.50;101079.03;5069668;28;20271;-74
2021/04/26 09:01:32;;;;;;;0.27;0.27;;;;;;;8.01;39.08;101074.19;5069723;28;20950;-74
2021/04/26 09:04:11;;;;;;;0.30;0.30;;;;;;;8.28;38.53;101073.81;5069391;28;20171;-76
2021/04/26 09:06:54;;;;;;;0.27;0.27;;;;;;;8.33;39.14;101074.59;5069666;28;20179;-73
2021/04/26 09:09:43;;;;;;;1.33;0.30;;;;;;;8.49;38.03;101069.88;5072130;28;20598;-75
2021/04/26 09:12:21;;;;;;;0.40;0.30;;;;;;;8.48;39.32;101065.53;5071700;28;20648;-71
2021/04/26 09:14:49;;;;;;;0.53;0.50;;;;;;;8.61;38.86;101059.47;5073522;28;20423;-71
2021/04/26 09:17:36;;;;;;;0.50;0.50;;;;;;;8.51;37.09;101061.44;5073452;28;20162;-72
2021/04/26 09:20:17;;;;;;;0.20;0.20;;;;;;;8.75;37.02;101058.81;5073041;28;20209;-71
2021/04/26 09:22:44;;;;;;;0.20;0.20;;;;;;;8.75;37.43;101064.28;5073157;28;20181;-72
2021/04/26 09:25:21;;;;;;;0.30;0.30;;;;;;;8.71;36.22;101060.50;5072841;28;20182;-71
2021/04/26 09:27:53;;;;;;;0.30;0.20;;;;;;;8.94;36.92;101059.75;5073292;28;20201;-71
2021/04/26 09:30:48;;;;;;;8.73;0.73;;;;;;;8.69;36.13;101052.63;5073885;28;20220;-71
2021/04/26 09:33:40;;;;;;;0.57;0.57;;;;;;;8.79;36.73;101049.78;5072720;28;20166;-71
2021/04/26 09:36:21;;;;;;;0.50;0.33;;;;;;;8.95;36.39;101050.47;5071333;28;20182;-71
2021/04/26 09:38:51;;;;;;;5.40;0.40;;;;;;;9.00;36.55;101041.47;5072806;28;20212;-70
2021/04/26 09:41:25;;;;;;;1.27;0.40;;;;;;;8.89;34.84;101040.72;5073073;28;20185;-72
2021/04/26 09:44:06;;;;;;;0.20;0.20;;;;;;;9.02;34.60;101050.16;5072931;28;20166;-71
2021/04/26 09:46:37;;;;;;;0.80;0.80;;;;;;;9.08;36.30;101040.84;5073156;28;20163;-71
2021/04/26 09:49:20;;;;;;;0.40;0.40;;;;;;;9.12;35.75;101034.53;5072967;28;20217;-71
2021/04/26 09:51:48;;;;;;;0.57;0.57;;;;;;;9.01;34.30;101038.44;5073008;28;20183;-70
2021/04/26 09:54:14;;;;;;;0.50;0.50;;;;;;;9.00;34.97;101036.81;5072858;28;20516;-71
2021/04/26 09:56:43;;;;;;;0.40;0.40;;;;;;;8.61;35.45;101034.13;5072808;28;20177;-71
2021/04/26 09:59:10;;;;;;;0.60;0.40;;;;;;;9.19;35.60;101036.91;5072679;28;20233;-71
2021/04/26 10:01:36;;;;;;;0.53;0.30;;;;;;;9.20;35.56;101042.09;5071356;28;20220;-71
2021/04/26 10:04:03;;;;;;;0.43;0.30;;;;;;;9.09;35.31;101032.38;5072491;28;20170;-71
2021/04/26 10:06:28;;;;;;;0.90;0.50;;;;;;;9.13;34.63;101025.25;5070624;28;20206;-71
2021/04/26 10:08:59;;;;;;;0.60;0.37;;;;;;;9.40;36.45;101018.44;5072202;28;20209;-71
2021/04/26 10:11:26;;;;;;;0.37;0.37;;;;;;;9.68;36.34;101017.56;5072455;28;20307;-72
2021/04/26 10:14:09;;;;;;;0.70;0.70;;;;;;;9.29;34.29;101014.22;5072014;28;20167;-71
2021/04/26 10:16:45;;;;;;;1.37;0.63;;;;;;;9.46;34.09;101006.38;5070870;28;20188;-73
2021/04/26 10:19:15;;;;;;;0.40;0.40;;;;;;;9.61;33.91;101000.75;5071560;28;20621;-72
2021/04/26 10:21:41;;;;;;;0.20;0.20;;;;;;;9.85;35.03;101000.72;5072311;28;20170;-72
2021/04/26 10:24:19;;;;;;;1.20;0.97;;;;;;;10.02;34.59;100990.13;5071626;28;20707;-76
2021/04/26 10:26:49;;;;;;;0.80;0.50;;;;;;;10.05;36.01;100986.78;5071824;28;20166;-72
2021/04/26 10:29:19;;;;;;;0.50;0.50;;;;;;;9.81;34.22;100988.75;5071779;28;20171;-73
2021/04/26 10:31:56;;;;;;;0.40;0.40;;;;;;;9.50;34.43;100977.41;5071742;28;20209;-73
2021/04/26 10:34:33;;;;;;;0.93;0.43;;;;;;;9.94;35.18;100981.75;5071713;28;20260;-75
2021/04/26 10:37:18;;;;;;;0.40;0.40;;;;;;;9.54;35.25;100979.25;5071612;28;20192;-74
2021/04/26 10:39:59;;;;;;;0.50;0.50;;;;;;;9.79;34.67;100971.88;5071513;28;20248;-73
2021/04/26 10:42:36;;;;;;;0.50;0.50;;;;;;;9.86;34.40;100976.97;5071517;28;20542;-75
2021/04/26 10:45:24;;;;;;;1.87;0.53;;;;;;;9.69;34.82;100972.00;5071351;28;20170;-76
2021/04/26 10:47:58;;;;;;;0.43;0.43;;;;;;;9.98;34.15;100974.59;5071234;28;20480;-74
2021/04/26 10:50:23;;;;;;;0.50;0.50;;;;;;;10.29;36.44;100969.56;5070068;28;20206;-74
2021/04/26 10:52:49;;;;;;;0.87;0.60;;;;;;;10.38;33.48;100967.78;5071503;28;20247;-75
2021/04/26 10:55:23;;;;;;;1.30;0.83;;;;;;;10.31;33.25;100967.34;5071647;28;20185;-72
2021/04/26 10:57:59;;;;;;;0.70;0.70;;;;;;;10.24;33.17;100961.44;5071584;28;20250;-73
2021/04/26 11:00:31;;;;;;;0.93;0.60;;;;;;;10.37;33.97;100971.63;5071005;28;20201;-75
2021/04/26 11:03:00;;;;;;;0.50;0.50;;;;;;;10.46;36.44;100958.09;5069634;28;20541;-74
2021/04/26 11:05:28;;;;;;;0.33;0.33;;;;;;;10.23;35.15;100959.81;5069776;28;20407;-73
2021/04/26 11:10:28;;;;;;;0.53;0.53;;;;;;;10.36;32.68;100950.88;5071290;28;20547;-74
2021/04/26 11:12:57;;;;;;;0.37;0.37;;;;;;;9.96;32.88;100955.78;5070689;28;20217;-75
2021/04/26 11:15:24;;;;;;;0.30;0.30;;;;;;;10.36;36.00;100957.16;5070854;28;20178;-75
2021/04/26 11:17:50;;;;;;;0.60;0.60;;;;;;;10.25;33.26;100957.59;5070812;28;20397;-74
2021/04/26 11:20:21;;;;;;;0.40;0.40;;;;;;;10.43;34.61;100943.94;5070754;28;20202;-73
2021/04/26 11:22:47;;;;;;;0.33;0.33;;;;;;;10.71;33.65;100949.50;5070880;28;20174;-76
2021/04/26 11:25:32;;;;;;;0.50;0.50;;;;;;;10.96;32.97;100940.00;5070453;28;20303;-74
2021/04/26 11:27:58;;;;;;;0.33;0.33;;;;;;;11.02;36.80;100925.16;5070595;28;20610;-76
2021/04/26 11:30:27;;;;;;;0.40;0.40;;;;;;;11.15;32.78;100920.81;5070105;28;20171;-76
2021/04/26 11:33:10;;;;;;;0.43;0.33;;;;;;;11.09;32.18;100920.06;5070224;28;20262;-72
2021/04/26 11:35:58;;;;;;;0.73;0.73;;;;;;;11.02;33.18;100917.75;5070554;28;20621;-76
2021/04/26 11:38:24;;;;;;;0.53;0.53;;;;;;;10.99;32.83;100917.53;5070495;28;20232;-76